Time;durP1;ratioP1;P1;durP2;ratioP2;P2;SDS_P1;SDS_P2;PMS_P1;PMS_P2;Temp;Humidity;BMP_temperature;BMP_pressure;BME280_temperature;BME280_humidity;BME280_pressure;Samples;Min_cycle;Max_cycle;Signal;HPM_P1;HPM_P2
2022/05/03 00:01:02;;;;;;;34.33;22.48;;;12.90;99.90;;;;;;4988078;28;20345;-70
2022/05/03 00:03:35;;;;;;;38.75;23.90;;;12.90;99.90;;;;;;5001765;28;20038;-70
2022/05/03 00:06:18;;;;;;;41.80;24.17;;;12.80;99.90;;;;;;5001968;28;20018;-71
2022/05/03 00:08:50;;;;;;;37.30;22.90;;;12.80;99.90;;;;;;5004131;28;20086;-71
2022/05/03 00:11:40;;;;;;;39.13;23.65;;;12.70;99.90;;;;;;5002886;28;20056;-70
2022/05/03 00:14:29;;;;;;;40.35;23.48;;;12.80;99.90;;;;;;4971903;28;20426;-70
2022/05/03 00:16:56;;;;;;;42.08;23.92;;;12.70;99.90;;;;;;5002143;28;20018;-69
2022/05/03 00:19:23;;;;;;;36.92;23.92;;;12.70;99.90;;;;;;5017284;28;20262;-70
2022/05/03 00:21:49;;;;;;;40.22;24.38;;;12.70;99.90;;;;;;5001071;28;20030;-70
2022/05/03 00:24:16;;;;;;;39.97;23.75;;;12.70;99.90;;;;;;5000728;28;20126;-70
2022/05/03 00:26:43;;;;;;;39.78;24.63;;;12.70;99.90;;;;;;4983650;28;20068;-71
2022/05/03 00:29:10;;;;;;;39.75;23.45;;;12.70;99.90;;;;;;5001620;28;20340;-71
2022/05/03 00:31:36;;;;;;;39.97;22.80;;;12.70;99.90;;;;;;4984942;28;20057;-70
2022/05/03 00:34:03;;;;;;;44.38;25.95;;;12.60;99.90;;;;;;4998877;28;20295;-70
2022/05/03 00:36:31;;;;;;;38.38;23.95;;;12.50;99.90;;;;;;4999835;28;20038;-69
2022/05/03 00:38:57;;;;;;;45.22;24.23;;;12.50;99.90;;;;;;5000405;28;20034;-69
2022/05/03 00:41:56;;;;;;;44.53;23.92;;;12.60;99.90;;;;;;4999312;28;20030;-69
2022/05/03 00:45:02;;;;;;;40.50;24.42;;;12.50;99.90;;;;;;4988341;28;20380;-70
2022/05/03 00:47:50;;;;;;;38.95;23.67;;;12.50;99.90;;;;;;4988959;28;20080;-69
2022/05/03 00:50:34;;;;;;;39.15;24.20;;;12.50;99.90;;;;;;4999067;28;20046;-70
2022/05/03 00:53:30;;;;;;;39.95;23.80;;;12.50;99.90;;;;;;5000263;28;20106;-69
2022/05/03 00:56:35;;;;;;;43.60;24.33;;;12.50;99.90;;;;;;4985389;28;20109;-69
2022/05/03 00:59:41;;;;;;;41.83;23.73;;;12.40;99.90;;;;;;4975794;28;20045;-70
2022/05/03 01:02:08;;;;;;;40.70;24.00;;;12.50;99.90;;;;;;4989199;28;20030;-69
2022/05/03 01:05:10;;;;;;;39.13;22.80;;;12.50;99.90;;;;;;4999690;28;20030;-70
2022/05/03 01:07:42;;;;;;;;;;;12.50;99.90;;;;;;4985845;28;20473;-69
2022/05/03 01:10:36;;;;;;;40.97;23.20;;;12.50;99.90;;;;;;5000019;28;19968;-69
2022/05/03 01:13:07;;;;;;;39.22;22.65;;;12.50;99.90;;;;;;4999170;28;20034;-70
2022/05/03 01:15:38;;;;;;;36.80;22.90;;;12.60;99.90;;;;;;5000064;28;20022;-70
2022/05/03 01:18:21;;;;;;;44.03;22.87;;;12.50;99.90;;;;;;5000097;28;20026;-72
2022/05/03 01:21:08;;;;;;;42.50;24.08;;;12.50;99.90;;;;;;4999184;28;20264;-69
2022/05/03 01:24:14;;;;;;;39.40;23.45;;;12.50;99.90;;;;;;5001086;28;20053;-69
2022/05/03 01:27:13;;;;;;;44.60;24.73;;;12.50;99.90;;;;;;4987865;28;20329;-70
2022/05/03 01:29:46;;;;;;;43.30;24.58;;;12.50;99.90;;;;;;4999597;28;20418;-70
2022/05/03 01:32:15;;;;;;;44.28;24.95;;;12.40;99.90;;;;;;4999557;28;20027;-69
2022/05/03 01:34:46;;;;;;;44.55;25.77;;;12.40;99.90;;;;;;4999403;28;20238;-69
2022/05/03 01:37:41;;;;;;;44.83;26.13;;;12.30;99.90;;;;;;4967497;28;20348;-70
2022/05/03 01:40:12;;;;;;;43.30;24.45;;;12.30;99.90;;;;;;4985541;28;20026;-70
2022/05/03 01:43:18;;;;;;;45.00;25.67;;;12.30;99.90;;;;;;5000269;28;20085;-69
2022/05/03 01:46:06;;;;;;;43.53;24.73;;;12.20;99.90;;;;;;4989581;28;20363;-71
2022/05/03 01:52:25;;;;;;;42.80;24.42;;;12.20;99.90;;;;;;4999982;28;20069;-69
2022/05/03 01:55:31;;;;;;;46.00;24.10;;;12.30;99.90;;;;;;4988756;28;20034;-69
2022/05/03 01:58:36;;;;;;;44.35;24.33;;;12.20;99.90;;;;;;4973953;28;20029;-69
2022/05/03 02:01:08;;;;;;;41.53;24.05;;;12.20;99.90;;;;;;4978404;28;20138;-70
2022/05/03 02:04:02;;;;;;;40.60;22.83;;;12.30;99.90;;;;;;4986086;28;20118;-70
2022/05/03 02:06:39;;;;;;;46.00;24.60;;;12.20;99.90;;;;;;5003747;28;20022;-69
2022/05/03 02:09:06;;;;;;;43.30;23.75;;;12.20;99.90;;;;;;5020307;28;20065;-69
2022/05/03 02:11:57;;;;;;;43.47;23.73;;;12.10;99.90;;;;;;5005124;28;20030;-71
2022/05/03 02:14:44;;;;;;;48.67;23.90;;;12.10;99.90;;;;;;5004020;28;20245;-70
2022/05/03 02:17:49;;;;;;;44.03;23.35;;;12.10;99.90;;;;;;5003586;28;20093;-69
2022/05/03 02:20:46;;;;;;;51.15;22.90;;;12.10;99.90;;;;;;4980717;28;20026;-69
2022/05/03 02:23:49;;;;;;;47.28;22.80;;;12.00;99.90;;;;;;5007735;28;20018;-69
2022/05/03 02:26:39;;;;;;;51.92;22.63;;;11.90;99.90;;;;;;5003665;28;20037;-69
2022/05/03 02:29:10;;;;;;;41.33;21.77;;;11.90;99.90;;;;;;5003478;28;20057;-70
2022/05/03 02:32:03;;;;;;;40.03;20.52;;;12.00;99.90;;;;;;4988841;28;20038;-70
2022/05/03 02:34:40;;;;;;;36.55;20.08;;;12.00;99.90;;;;;;5005986;28;20399;-69
2022/05/03 02:37:35;;;;;;;34.95;19.88;;;12.00;99.90;;;;;;5004330;28;20232;-69
2022/05/03 02:40:07;;;;;;;37.92;20.40;;;12.00;99.90;;;;;;4995526;28;20030;-70
2022/05/03 02:42:34;;;;;;;37.92;20.70;;;12.00;99.90;;;;;;5006069;28;20037;-69
2022/05/03 02:45:01;;;;;;;39.75;21.73;;;11.90;99.90;;;;;;4998441;28;20026;-69
2022/05/03 02:48:07;;;;;;;36.47;21.23;;;12.00;99.90;;;;;;5014524;28;20022;-71
2022/05/03 02:51:00;;;;;;;37.13;21.33;;;12.00;99.90;;;;;;5003868;28;20045;-70
2022/05/03 02:53:43;;;;;;;41.17;21.05;;;11.90;99.90;;;;;;5018167;28;20030;-70
2022/05/03 02:56:40;;;;;;;37.05;22.38;;;11.90;99.90;;;;;;4983976;28;20025;-71
2022/05/03 03:01:47;;;;;;;37.30;20.63;;;11.90;99.90;;;;;;5002327;28;20033;-69
2022/05/03 03:02:26;;;;;;;40.95;23.08;;;11.80;99.90;;;;;;4983550;28;20029;-70
2022/05/03 03:05:05;;;;;;;45.00;24.52;;;11.90;99.90;;;;;;5002359;28;20221;-70
2022/05/03 03:07:52;;;;;;;45.38;24.85;;;11.90;99.90;;;;;;5002582;28;20054;-69
2022/05/03 03:10:22;;;;;;;46.05;23.98;;;11.90;99.90;;;;;;5003424;28;20038;-70
2022/05/03 03:12:56;;;;;;;43.40;24.70;;;11.90;99.90;;;;;;5002077;28;20069;-69
2022/05/03 03:15:29;;;;;;;47.13;25.38;;;11.90;99.90;;;;;;5001234;28;20019;-69
2022/05/03 03:17:57;;;;;;;40.63;24.40;;;11.90;99.90;;;;;;5000925;28;20026;-70
2022/05/03 03:20:26;;;;;;;44.65;25.83;;;11.90;99.90;;;;;;5001766;28;20269;-69
2022/05/03 03:22:52;;;;;;;47.75;26.77;;;11.80;99.90;;;;;;4984620;28;20033;-70
2022/05/03 03:25:20;;;;;;;48.92;27.40;;;11.80;99.90;;;;;;5001881;28;20034;-70
2022/05/03 03:27:48;;;;;;;46.80;27.50;;;11.80;99.90;;;;;;5000495;28;20023;-71
2022/05/03 03:30:16;;;;;;;46.25;26.92;;;11.80;99.90;;;;;;4984803;28;20326;-70
2022/05/03 03:32:56;;;;;;;53.20;27.30;;;11.80;99.90;;;;;;5000898;28;20129;-70
2022/05/03 03:35:22;;;;;;;52.85;28.77;;;11.80;99.90;;;;;;5001305;28;20030;-70
2022/05/03 03:37:50;;;;;;;49.85;26.98;;;11.70;99.90;;;;;;5001811;28;20313;-69
2022/05/03 03:40:17;;;;;;;45.97;26.67;;;11.70;99.90;;;;;;4984526;28;20101;-70
2022/05/03 03:42:45;;;;;;;55.25;28.38;;;11.70;99.90;;;;;;5000846;28;20049;-69
2022/05/03 03:45:12;;;;;;;49.38;28.17;;;11.80;99.90;;;;;;5000465;28;20072;-70
2022/05/03 03:47:40;;;;;;;49.63;27.08;;;11.80;99.90;;;;;;5000104;28;20262;-70
2022/05/03 03:50:07;;;;;;;49.03;27.33;;;11.80;99.90;;;;;;5016560;28;20505;-70
2022/05/03 03:52:34;;;;;;;51.25;27.77;;;11.80;99.90;;;;;;4999893;28;20244;-71
2022/05/03 03:55:02;;;;;;;48.08;27.35;;;11.70;99.90;;;;;;5000710;28;20129;-70
2022/05/03 03:57:29;;;;;;;54.17;27.17;;;11.70;99.90;;;;;;5017598;28;20037;-71
2022/05/03 03:59:55;;;;;;;53.60;28.20;;;11.70;99.90;;;;;;5001571;28;20038;-70
2022/05/03 04:02:22;;;;;;;49.08;27.30;;;11.80;99.90;;;;;;5016664;28;20097;-70
2022/05/03 04:04:49;;;;;;;48.78;27.20;;;11.80;99.90;;;;;;5000908;28;20026;-70
2022/05/03 04:07:15;;;;;;;47.75;26.27;;;11.80;99.90;;;;;;4999178;28;20030;-70
2022/05/03 04:09:40;;;;;;;53.95;26.98;;;11.80;99.90;;;;;;4999731;28;20077;-69
2022/05/03 04:12:07;;;;;;;45.08;26.73;;;11.90;99.90;;;;;;4982986;28;20030;-71
2022/05/03 04:14:32;;;;;;;46.75;26.38;;;11.90;99.90;;;;;;5000348;28;20034;-71
2022/05/03 04:16:59;;;;;;;43.25;25.67;;;11.90;99.90;;;;;;5001116;28;20121;-70
2022/05/03 04:19:25;;;;;;;45.50;25.05;;;12.00;99.90;;;;;;5000613;28;20099;-70
2022/05/03 04:21:51;;;;;;;44.92;23.83;;;12.00;99.90;;;;;;5001026;28;20077;-70
2022/05/03 04:24:17;;;;;;;39.08;23.85;;;11.80;99.90;;;;;;4999237;28;20305;-70
2022/05/03 04:26:43;;;;;;;43.38;24.42;;;11.80;99.90;;;;;;5000059;28;20034;-70
2022/05/03 04:29:09;;;;;;;41.00;24.13;;;11.80;99.90;;;;;;5001390;28;20038;-71
2022/05/03 04:31:36;;;;;;;48.40;25.48;;;11.80;99.90;;;;;;5002032;28;20233;-70
2022/05/03 04:34:04;;;;;;;42.53;24.48;;;11.70;99.90;;;;;;5000221;28;20072;-69
2022/05/03 04:36:32;;;;;;;42.58;24.00;;;11.80;99.90;;;;;;4983217;28;20027;-69
2022/05/03 04:38:59;;;;;;;38.38;22.48;;;11.70;99.90;;;;;;4999285;28;20026;-70
2022/05/03 04:41:25;;;;;;;38.75;22.48;;;11.80;99.90;;;;;;4999076;28;20088;-69
2022/05/03 04:43:51;;;;;;;39.67;22.92;;;11.80;99.90;;;;;;4981632;28;20026;-69
2022/05/03 04:46:17;;;;;;;41.13;22.75;;;11.80;99.90;;;;;;4999190;28;20057;-69
2022/05/03 04:48:43;;;;;;;38.78;23.00;;;11.70;99.90;;;;;;4999467;28;20230;-70
2022/05/03 04:51:21;;;;;;;39.90;23.05;;;11.80;99.90;;;;;;5016871;28;20066;-69
2022/05/03 04:53:47;;;;;;;41.55;23.17;;;11.80;99.90;;;;;;4986329;28;20022;-69
2022/05/03 04:56:23;;;;;;;40.03;21.77;;;11.70;99.90;;;;;;5018980;28;20026;-69
2022/05/03 04:58:50;;;;;;;39.25;22.67;;;11.70;99.90;;;;;;4985505;28;20030;-70
2022/05/03 05:01:16;;;;;;;39.80;22.05;;;11.70;99.90;;;;;;5001169;28;20088;-71
2022/05/03 05:03:43;;;;;;;40.30;22.15;;;11.80;99.90;;;;;;5002897;28;20044;-68
2022/05/03 05:06:11;;;;;;;42.58;23.20;;;11.80;99.90;;;;;;5017810;28;20045;-68
2022/05/03 05:08:37;;;;;;;43.03;23.17;;;11.80;99.90;;;;;;4999346;28;20305;-70
2022/05/03 05:11:04;;;;;;;43.65;24.83;;;11.80;99.90;;;;;;5015111;28;20041;-70
2022/05/03 05:13:30;;;;;;;47.08;24.63;;;11.80;99.90;;;;;;4999973;28;20284;-70
2022/05/03 05:15:56;;;;;;;39.50;23.42;;;11.80;99.90;;;;;;5000325;28;20034;-70
2022/05/03 05:18:22;;;;;;;46.67;24.63;;;11.90;99.90;;;;;;4999916;28;20093;-69
2022/05/03 05:20:48;;;;;;;49.08;25.92;;;11.90;99.90;;;;;;4998503;28;20032;-70
2022/05/03 05:23:14;;;;;;;42.30;25.85;;;12.00;99.90;;;;;;4983480;28;20039;-71
2022/05/03 05:25:39;;;;;;;46.58;28.08;;;12.00;99.90;;;;;;4999305;28;20382;-70
2022/05/03 05:28:05;;;;;;;52.90;27.60;;;12.00;99.90;;;;;;5000048;28;20038;-69
2022/05/03 05:30:31;;;;;;;46.97;28.75;;;12.10;99.90;;;;;;4999404;28;20242;-69
2022/05/03 05:32:56;;;;;;;54.20;30.13;;;12.00;99.90;;;;;;4998119;28;20044;-69
2022/05/03 05:35:22;;;;;;;49.33;28.92;;;12.00;99.90;;;;;;5000035;28;20029;-70
2022/05/03 05:37:48;;;;;;;50.28;29.65;;;12.00;99.90;;;;;;5001704;28;20030;-69
2022/05/03 05:40:13;;;;;;;54.95;30.75;;;12.00;99.90;;;;;;5002777;28;20042;-69
2022/05/03 05:42:39;;;;;;;48.95;29.13;;;12.00;99.90;;;;;;5003480;28;20034;-70
2022/05/03 05:45:06;;;;;;;56.97;30.15;;;12.00;99.90;;;;;;5000719;28;20088;-69
2022/05/03 05:47:32;;;;;;;52.75;29.48;;;12.00;99.90;;;;;;5002857;28;20054;-70
2022/05/03 05:49:57;;;;;;;51.70;30.65;;;12.10;99.90;;;;;;5003405;28;20456;-70
2022/05/03 05:55:09;;;;;;;55.40;31.15;;;12.10;99.90;;;;;;5002511;28;20026;-69
2022/05/03 05:57:35;;;;;;;50.20;29.48;;;12.20;99.90;;;;;;5004419;28;20022;-70
2022/05/03 06:00:01;;;;;;;53.55;29.17;;;12.20;99.90;;;;;;5002394;28;20084;-72
2022/05/03 06:02:27;;;;;;;54.45;29.77;;;12.30;99.90;;;;;;5002816;28;20026;-70
2022/05/03 06:04:53;;;;;;;47.67;28.27;;;12.30;99.90;;;;;;5003498;28;20026;-70
2022/05/03 06:07:18;;;;;;;48.35;28.15;;;12.40;99.90;;;;;;5002971;28;20207;-71
2022/05/03 06:09:44;;;;;;;48.97;29.23;;;12.50;99.90;;;;;;5001884;28;20072;-70
2022/05/03 06:12:10;;;;;;;46.63;28.48;;;12.60;99.90;;;;;;5002782;28;20223;-69
2022/05/03 06:14:36;;;;;;;47.08;29.02;;;12.70;99.90;;;;;;5002286;28;20351;-69
2022/05/03 06:17:02;;;;;;;49.22;29.55;;;12.60;99.90;;;;;;4985827;28;20049;-69
2022/05/03 06:19:28;;;;;;;52.53;29.70;;;12.60;99.90;;;;;;5003802;28;20405;-70
2022/05/03 06:21:54;;;;;;;49.75;28.92;;;12.60;99.90;;;;;;5003581;28;20038;-73
2022/05/03 06:24:19;;;;;;;49.60;29.42;;;12.60;99.90;;;;;;5003472;28;20029;-70
2022/05/03 06:26:45;;;;;;;52.85;30.42;;;12.50;99.90;;;;;;5002739;28;20026;-72
2022/05/03 06:29:12;;;;;;;54.45;30.33;;;12.50;99.90;;;;;;5001450;28;20057;-70
2022/05/03 06:31:39;;;;;;;53.08;29.52;;;12.50;99.90;;;;;;5001442;28;20092;-71
2022/05/03 06:34:06;;;;;;;52.83;30.25;;;12.50;99.90;;;;;;5001254;28;20045;-70
2022/05/03 06:36:35;;;;;;;48.15;29.38;;;12.50;99.90;;;;;;5001372;28;20026;-72
2022/05/03 06:39:01;;;;;;;51.08;30.60;;;12.40;99.90;;;;;;5009799;28;20049;-70
2022/05/03 06:41:26;;;;;;;50.25;30.50;;;12.40;99.90;;;;;;5001286;28;20036;-70
2022/05/03 06:43:52;;;;;;;46.42;28.92;;;12.40;99.90;;;;;;4999682;28;20049;-71
2022/05/03 06:46:20;;;;;;;57.55;29.65;;;12.50;99.90;;;;;;5002863;28;20034;-70
2022/05/03 06:48:46;;;;;;;50.70;30.00;;;12.50;99.90;;;;;;4982413;28;20300;-71
2022/05/03 06:51:12;;;;;;;47.65;28.25;;;12.50;99.90;;;;;;5002812;28;20073;-70
2022/05/03 06:53:38;;;;;;;47.20;28.40;;;12.60;99.90;;;;;;5002296;28;20018;-70
2022/05/03 06:56:05;;;;;;;45.25;28.30;;;12.70;99.90;;;;;;4985193;28;20026;-73
2022/05/03 06:58:30;;;;;;;49.13;29.65;;;12.70;99.90;;;;;;5002419;28;20305;-70
2022/05/03 07:00:56;;;;;;;50.00;29.63;;;12.80;99.90;;;;;;5003851;28;20037;-71
2022/05/03 07:03:22;;;;;;;46.22;27.38;;;12.80;99.90;;;;;;5004511;28;20022;-71
2022/05/03 07:05:48;;;;;;;44.05;26.77;;;12.90;99.90;;;;;;5031996;28;20241;-71
2022/05/03 07:08:14;;;;;;;47.90;27.48;;;12.90;99.90;;;;;;5001877;28;20033;-71
2022/05/03 07:10:41;;;;;;;44.20;27.23;;;12.90;99.90;;;;;;5001495;28;20217;-72
2022/05/03 07:13:13;;;;;;;44.20;26.92;;;13.00;99.90;;;;;;5000040;28;20321;-70
2022/05/03 07:15:38;;;;;;;40.95;26.35;;;13.00;99.90;;;;;;5001535;28;20333;-71
2022/05/03 07:23:36;;;;;;;40.50;26.60;;;13.10;99.90;;;;;;5000868;28;20026;-72
2022/05/03 07:26:02;;;;;;;42.05;26.80;;;13.10;99.90;;;;;;4999726;28;20030;-71
2022/05/03 07:28:28;;;;;;;39.88;25.35;;;13.20;99.90;;;;;;5016047;28;20124;-72
2022/05/03 07:30:54;;;;;;;44.30;27.10;;;13.20;99.90;;;;;;5001247;28;20243;-70
2022/05/03 07:33:19;;;;;;;43.28;25.45;;;13.30;99.90;;;;;;4999756;28;20093;-73
2022/05/03 07:35:45;;;;;;;37.38;25.40;;;13.40;99.90;;;;;;4999841;28;20045;-71
2022/05/03 07:38:11;;;;;;;35.88;24.42;;;13.30;99.90;;;;;;5001412;28;20037;-73
2022/05/03 07:40:37;;;;;;;39.67;26.38;;;13.20;99.90;;;;;;4967012;28;20039;-72
2022/05/03 07:43:03;;;;;;;38.22;26.55;;;13.10;99.90;;;;;;5001542;28;20125;-71
2022/05/03 07:45:29;;;;;;;40.47;25.40;;;13.20;99.90;;;;;;4999597;28;20022;-70
2022/05/03 07:47:55;;;;;;;41.28;26.10;;;13.20;99.90;;;;;;5001866;28;20313;-72
2022/05/03 07:50:21;;;;;;;39.38;24.98;;;13.20;99.90;;;;;;4984313;28;20061;-75
2022/05/03 07:52:47;;;;;;;40.25;24.33;;;13.20;99.90;;;;;;5001498;28;20360;-70
2022/05/03 07:55:12;;;;;;;42.10;25.15;;;13.30;99.90;;;;;;5000567;28;20034;-73
2022/05/03 07:57:41;;;;;;;40.90;24.95;;;13.40;99.90;;;;;;4983979;28;20018;-71
2022/05/03 08:00:10;;;;;;;40.53;24.92;;;13.40;99.90;;;;;;5003792;28;20043;-70
2022/05/03 08:02:40;;;;;;;40.10;25.15;;;13.50;99.90;;;;;;4999690;28;20031;-69
2022/05/03 08:05:10;;;;;;;44.60;25.90;;;13.50;99.90;;;;;;4966745;28;20340;-70
2022/05/03 08:07:38;;;;;;;41.67;24.70;;;13.40;99.90;;;;;;4996303;28;20014;-70
2022/05/03 08:10:05;;;;;;;41.10;25.27;;;13.40;99.90;;;;;;4965137;28;20340;-72
2022/05/03 08:12:35;;;;;;;41.45;25.42;;;13.30;99.90;;;;;;4998594;28;20030;-69
2022/05/03 08:15:03;;;;;;;40.72;25.75;;;13.20;99.90;;;;;;4985403;28;20109;-70
2022/05/03 08:17:29;;;;;;;42.75;25.73;;;13.30;99.90;;;;;;5001431;28;20018;-72
2022/05/03 08:20:01;;;;;;;39.47;25.13;;;13.30;99.90;;;;;;4999843;28;20034;-69
2022/05/03 08:22:33;;;;;;;41.95;25.48;;;13.30;99.90;;;;;;4984296;28;20037;-71
2022/05/03 08:24:59;;;;;;;37.70;24.92;;;13.30;99.90;;;;;;4969630;28;20229;-71
2022/05/03 08:27:24;;;;;;;41.40;25.63;;;13.30;99.90;;;;;;4998427;28;20022;-70
2022/05/03 08:29:50;;;;;;;43.95;26.35;;;13.30;99.90;;;;;;5000575;28;20024;-70
2022/05/03 08:32:16;;;;;;;42.80;27.05;;;13.40;99.90;;;;;;4999752;28;20325;-71
2022/05/03 08:34:43;;;;;;;42.85;26.10;;;13.40;99.90;;;;;;5000632;28;20357;-72
2022/05/03 08:42:43;;;;;;;42.13;26.30;;;13.20;99.90;;;;;;4972369;28;20026;-70
2022/05/03 08:45:09;;;;;;;44.10;26.83;;;13.10;99.90;;;;;;4996481;28;20053;-70
2022/05/03 08:47:38;;;;;;;56.13;28.60;;;13.10;99.90;;;;;;5011500;28;20030;-70
2022/05/03 08:50:07;;;;;;;48.33;26.70;;;13.20;99.90;;;;;;4999860;28;20030;-71
2022/05/03 08:52:39;;;;;;;45.05;27.08;;;13.20;99.90;;;;;;4999054;28;20061;-70
2022/05/03 08:55:06;;;;;;;46.30;28.55;;;13.20;99.90;;;;;;4999831;28;20029;-69
2022/05/03 08:57:33;;;;;;;41.50;27.35;;;13.20;99.90;;;;;;4999796;28;20321;-70
2022/05/03 09:00:05;;;;;;;46.58;28.70;;;13.20;99.90;;;;;;4996787;28;20050;-71
2022/05/03 09:02:43;;;;;;;48.97;29.25;;;13.20;99.90;;;;;;4996034;28;20022;-71
2022/05/03 09:05:15;;;;;;;;;;;13.20;99.90;;;;;;4984194;28;20033;-70
2022/05/03 09:08:01;;;;;;;40.58;26.23;;;13.30;99.90;;;;;;4998032;28;19910;-71
2022/05/03 09:10:33;;;;;;;41.63;26.10;;;13.30;99.90;;;;;;4987440;28;20054;-70
2022/05/03 09:13:22;;;;;;;42.35;26.42;;;13.50;99.90;;;;;;4975879;28;20110;-69
2022/05/03 09:15:52;;;;;;;44.75;25.08;;;13.60;99.90;;;;;;5005530;28;20301;-69
2022/05/03 09:18:29;;;;;;;44.22;26.35;;;13.60;99.90;;;;;;4985415;28;20097;-68
2022/05/03 09:23:47;;;;;;;46.67;27.02;;;13.80;99.90;;;;;;5001361;28;20026;-69
2022/05/03 09:26:26;;;;;;;43.17;26.10;;;13.70;99.90;;;;;;5003506;28;20302;-72
2022/05/03 09:28:56;;;;;;;44.35;25.55;;;13.60;99.90;;;;;;5002816;28;20224;-69
2022/05/03 09:31:34;;;;;;;38.28;24.45;;;13.60;99.90;;;;;;5001952;28;20069;-71
2022/05/03 09:34:07;;;;;;;41.33;24.58;;;13.70;99.90;;;;;;4998802;28;20030;-70
2022/05/03 09:36:47;;;;;;;41.00;25.33;;;13.60;99.90;;;;;;4999855;28;20057;-71
2022/05/03 09:39:34;;;;;;;40.17;24.63;;;13.60;99.90;;;;;;5001974;28;20057;-72
2022/05/03 09:42:06;;;;;;;40.90;24.02;;;13.80;99.90;;;;;;4988839;28;20042;-71
2022/05/03 09:44:36;;;;;;;41.75;24.65;;;13.80;99.90;;;;;;4996313;28;20164;-71
2022/05/03 09:47:08;;;;;;;40.45;24.60;;;13.80;99.90;;;;;;4997692;28;20424;-69
2022/05/03 09:49:36;;;;;;;41.45;24.40;;;14.00;99.90;;;;;;4999122;28;20128;-70
2022/05/03 09:52:05;;;;;;;41.03;24.33;;;14.10;99.90;;;;;;4999218;28;20058;-71
2022/05/03 09:54:48;;;;;;;39.10;24.73;;;14.00;99.90;;;;;;5003839;28;20018;-70
2022/05/03 09:57:32;;;;;;;39.72;24.45;;;14.00;99.90;;;;;;4968546;28;20018;-67
2022/05/03 10:00:02;;;;;;;44.30;24.38;;;14.00;99.90;;;;;;5002817;28;20022;-69
2022/05/03 10:02:32;;;;;;;36.78;22.25;;;14.20;99.90;;;;;;5016878;28;20282;-68
2022/05/03 10:04:59;;;;;;;38.78;23.00;;;14.10;99.90;;;;;;5014612;28;20033;-69
2022/05/03 10:07:29;;;;;;;39.05;23.50;;;14.30;99.90;;;;;;5006243;28;20301;-71
2022/05/03 10:09:58;;;;;;;46.85;24.63;;;14.20;99.90;;;;;;5002488;28;20049;-68
2022/05/03 10:12:26;;;;;;;36.85;23.10;;;14.20;99.90;;;;;;5001448;28;20041;-68
2022/05/03 10:14:52;;;;;;;37.38;23.17;;;14.50;99.90;;;;;;5001802;28;20030;-69
2022/05/03 10:20:36;;;;;;;39.45;24.25;;;14.60;99.80;;;;;;4991684;28;20021;-69
2022/05/03 10:23:02;;;;;;;38.38;23.63;;;14.70;99.80;;;;;;5015964;28;20019;-69
2022/05/03 10:25:48;;;;;;;39.33;23.63;;;14.60;99.90;;;;;;4997387;28;20030;-68
2022/05/03 10:28:17;;;;;;;38.25;22.75;;;14.60;99.90;;;;;;4984164;28;20285;-70
2022/05/03 10:31:13;;;;;;;36.75;21.55;;;14.60;99.70;;;;;;5003086;28;20034;-71
2022/05/03 10:33:43;;;;;;;37.05;22.17;;;14.60;99.60;;;;;;4989281;28;20014;-72
2022/05/03 10:36:40;;;;;;;41.55;22.98;;;14.60;99.50;;;;;;5000819;28;20022;-70
2022/05/03 10:39:22;;;;;;;32.42;20.48;;;14.90;99.50;;;;;;5003149;28;20026;-71
2022/05/03 10:42:12;;;;;;;33.60;20.80;;;15.20;99.10;;;;;;4996669;28;20038;-71
2022/05/03 10:44:40;;;;;;;33.25;20.83;;;15.20;98.50;;;;;;4985998;28;20025;-71
2022/05/03 10:47:06;;;;;;;31.48;20.52;;;15.30;98.50;;;;;;5001594;28;20038;-70
2022/05/03 10:49:32;;;;;;;31.25;19.48;;;15.50;97.70;;;;;;5008124;28;20353;-70
2022/05/03 10:51:58;;;;;;;31.27;19.88;;;15.50;97.40;;;;;;4993588;28;20161;-71
2022/05/03 10:54:24;;;;;;;29.40;20.10;;;15.50;97.20;;;;;;5001715;28;20022;-69
2022/05/03 10:57:03;;;;;;;28.98;18.88;;;15.40;97.40;;;;;;5005951;28;20034;-72
2022/05/03 10:59:47;;;;;;;29.42;19.10;;;15.50;97.70;;;;;;5007169;28;20018;-70
2022/05/03 11:02:13;;;;;;;29.42;18.98;;;15.70;97.50;;;;;;5000448;28;20041;-71
2022/05/03 11:05:15;;;;;;;29.58;19.70;;;15.70;97.10;;;;;;5003204;28;20022;-71
2022/05/03 11:07:41;;;;;;;28.98;19.27;;;15.90;97.10;;;;;;4970213;28;20026;-72
2022/05/03 11:10:42;;;;;;;34.88;21.23;;;16.00;96.70;;;;;;5018405;28;20392;-71
2022/05/03 11:13:36;;;;;;;32.95;20.67;;;16.00;96.10;;;;;;5000925;28;20077;-71
2022/05/03 11:16:25;;;;;;;31.33;20.48;;;16.20;96.10;;;;;;4988949;28;20034;-70
2022/05/03 11:18:52;;;;;;;33.75;20.55;;;16.30;95.90;;;;;;4984531;28;20030;-70
2022/05/03 11:21:21;;;;;;;30.70;20.20;;;16.50;95.50;;;;;;5016609;28;20204;-71
2022/05/03 11:23:50;;;;;;;32.05;21.27;;;16.60;95.50;;;;;;5002347;28;20034;-72
2022/05/03 11:26:19;;;;;;;29.13;20.77;;;16.60;95.20;;;;;;5000044;28;20030;-70
2022/05/03 11:28:49;;;;;;;29.08;20.10;;;16.70;95.10;;;;;;4998306;28;20057;-73
2022/05/03 11:31:19;;;;;;;35.25;21.17;;;16.80;95.30;;;;;;5001077;28;20041;-74
2022/05/03 11:33:50;;;;;;;31.52;19.52;;;16.60;95.30;;;;;;4996429;28;20030;-74
2022/05/03 11:36:16;;;;;;;32.05;20.17;;;16.80;94.90;;;;;;4999997;28;20068;-71
2022/05/03 11:38:42;;;;;;;32.42;21.25;;;16.90;94.80;;;;;;4996473;28;20038;-71
2022/05/03 11:41:10;;;;;;;31.48;20.35;;;16.90;94.70;;;;;;5000209;28;20034;-75
2022/05/03 11:43:38;;;;;;;27.75;19.27;;;16.80;94.40;;;;;;4999644;28;20030;-69
2022/05/03 11:46:07;;;;;;;29.75;20.05;;;16.80;94.70;;;;;;5000512;28;20040;-70
2022/05/03 11:48:34;;;;;;;29.92;19.52;;;16.90;94.40;;;;;;4999471;28;20026;-71
2022/05/03 11:56:35;;;;;;;27.20;18.92;;;17.50;93.70;;;;;;4970022;28;20126;-72
2022/05/03 11:59:00;;;;;;;33.90;18.48;;;17.30;93.70;;;;;;4999973;28;20038;-71
2022/05/03 12:01:34;;;;;;;30.30;19.05;;;17.30;93.80;;;;;;4997270;28;20076;-71
2022/05/03 12:04:02;;;;;;;29.27;18.52;;;17.40;94.00;;;;;;5001407;28;20034;-72
2022/05/03 12:06:43;;;;;;;25.20;17.10;;;17.50;93.90;;;;;;4997160;28;20098;-72
2022/05/03 12:09:18;;;;;;;26.02;18.55;;;17.90;93.50;;;;;;4997951;28;20049;-70
2022/05/03 12:14:44;;;;;;;26.00;17.73;;;18.10;92.70;;;;;;4999354;28;20037;-71
2022/05/03 12:17:13;;;;;;;25.63;18.00;;;18.60;92.00;;;;;;4999874;28;20026;-71
2022/05/03 12:19:39;;;;;;;25.67;17.48;;;18.40;92.40;;;;;;4984526;28;20425;-70
2022/05/03 12:22:13;;;;;;;23.92;17.52;;;18.40;92.30;;;;;;5003148;28;20101;-70
2022/05/03 12:24:41;;;;;;;23.77;17.27;;;18.50;92.20;;;;;;4995975;28;20018;-70
2022/05/03 12:27:18;;;;;;;23.58;16.92;;;18.30;92.30;;;;;;4996101;28;20340;-74
2022/05/03 12:29:46;;;;;;;26.52;18.40;;;18.20;92.50;;;;;;4991339;28;20415;-70
2022/05/03 12:32:14;;;;;;;27.20;18.15;;;18.30;92.20;;;;;;5001148;28;20221;-72
2022/05/03 12:34:41;;;;;;;27.25;18.85;;;18.30;92.00;;;;;;5000538;28;20199;-73
2022/05/03 12:37:10;;;;;;;25.30;18.15;;;18.50;91.80;;;;;;4984563;28;20050;-71
2022/05/03 12:39:38;;;;;;;25.90;18.02;;;18.40;91.60;;;;;;5002166;28;20030;-73
2022/05/03 12:42:12;;;;;;;24.63;17.83;;;18.40;91.60;;;;;;5016691;28;20026;-72
2022/05/03 12:44:57;;;;;;;25.67;17.60;;;18.40;91.40;;;;;;4983162;28;20229;-72
2022/05/03 12:47:26;;;;;;;26.15;18.45;;;18.60;91.60;;;;;;5001770;28;20218;-72
2022/05/03 12:49:53;;;;;;;26.08;18.65;;;18.60;91.20;;;;;;4963422;28;20237;-71
2022/05/03 12:52:21;;;;;;;23.90;16.58;;;18.50;91.30;;;;;;4995432;28;20153;-71
2022/05/03 12:54:48;;;;;;;25.73;17.20;;;18.50;91.70;;;;;;5000473;28;20030;-75
2022/05/03 13:00:01;;;;;;;24.50;17.40;;;18.70;91.30;;;;;;4973365;28;20027;-71
2022/05/03 13:02:27;;;;;;;23.75;17.88;;;18.50;91.20;;;;;;5012392;28;20022;-73
2022/05/03 13:04:53;;;;;;;23.33;17.05;;;18.40;91.40;;;;;;5000296;28;20037;-69
2022/05/03 13:07:19;;;;;;;22.77;16.73;;;18.50;91.30;;;;;;5016987;28;20060;-73
2022/05/03 13:09:45;;;;;;;23.15;16.70;;;18.60;91.40;;;;;;5003140;28;20053;-73
2022/05/03 13:12:14;;;;;;;23.02;17.05;;;18.40;91.30;;;;;;4985402;28;20025;-73
2022/05/03 13:14:40;;;;;;;20.38;15.43;;;18.30;91.30;;;;;;4968424;28;20022;-73
2022/05/03 13:17:05;;;;;;;21.52;15.55;;;18.50;91.40;;;;;;4984897;28;20022;-74
2022/05/03 13:19:32;;;;;;;23.27;14.95;;;18.60;91.40;;;;;;5016664;28;20271;-72
2022/05/03 13:21:58;;;;;;;20.83;15.52;;;18.40;91.70;;;;;;5002079;28;20033;-74
2022/05/03 13:24:25;;;;;;;20.83;15.63;;;18.50;91.30;;;;;;4999948;28;20349;-72
2022/05/03 13:26:51;;;;;;;19.38;14.75;;;18.70;91.40;;;;;;5000936;28;20022;-72
2022/05/03 13:29:23;;;;;;;22.88;16.42;;;18.70;91.50;;;;;;5000000;28;20173;-70